Wallace, North Carolina
Current Conditions -  °F | °C
As of 12:55 PM on Monday 24 Nov 2014 (Local Time) from KDPL Reporting Station
Overcast Overcast  
Wind Chill: 69°   Ceiling: 600
Heat Index: 69°   Visibility: 10mi
Dew Point: 67°   Wind: 3mph
Humidity: 94%   Direction: 190°S
Pressure: 29.84"   Gusts: NA
Location:  34.74°N, 78°W
Report Text: KDPL 241755Z AUTO 19003KT 10SM BKN006 BKN012 OVC047 21/20 A2984 RMK AO2 T02050195 10206 20186
Loading
Personal Weather Stations






























Interactive Weather Map New forecast layout! Learn more

10-Day Weather Forecast

Advertisements
Track Severe Weather on mobile